Rechercher aéroport 
image banner adimage banner adimage banner ad
image banner ad

80CN - Pine Valley Border Patrol Station

Situé à Pine Valley, United States

ICAO - 80CN, IATA -

Données fournies par Airmate  

Information générale

Coordonnées: N32°42'57" W116°27'0"
Élévation : 3275 feet MSL.
 
Voir autres Aéroports à California

Données opérationnelles

Special qualification required
Heure actuelle UTC:
Heure actuelle locale:
Météo à : KSEE - Gillespie Field ( 50 km )
METAR: KSEE 020535Z AUTO 30006KT 10SM CLR 22/07 A3002 RMK AO2
Voir NOTAMs / SUP AIP / TFR affectant cet aéroport [VIEW]
Fréquences de communication: [VIEW]

Pistes:

Coordonnées de l'aéroport

Adresse: Pine Valley United States

Vue satellite de 80CN